Terminal Aerodrome Forecast
Issued by NWS La Crosse, WI

Home | Current Version | Previous Version | Text Only | Print | Product List | Glossary On
Versions: 1 2 3 4 5 6 7 8 9 10 11 12 13 14 15 16 17 18 19 20 21 22
000
FTUS43 KARX 060530
TAFLSE
TAF
KLSE 060530Z 0606/0706 17009KT P6SM OVC100
     FM060800 18010KT P6SM -RA OVC050
     FM061000 19009KT 5SM -SNDZ OVC008
     FM061500 25009KT P6SM BKN015
     FM061700 26011G19KT P6SM BKN040
     FM062100 26012G20KT P6SM BKN025=

USA.gov is the U.S. government's official web portal to all federal, state and local government web resources and services.